CheckWX is a tool to help pilots better visualize weather data.  It is not intended as a substitute for an official pre-flight weather briefing.

13:21:36 UTC

EGSC METAR
Cambridge Airport
Cambridge, United Kingdom
Current

32 mins ago

EGSC 201250Z 25010KT 9999 FEW048 20/07 Q1022
Observed
Aug-20 @ 12:50 UTC
Wind
  • 250° at 10 KTS
Visibility
10,000+ meters
Flight Rules
VFR
Cloud Levels
  • Few at 4,800' AGL
Temperature
20°C / 68°F
Dewpoint
C / 45°F
Humidity
43%
Altimeter
30.18" Hg
Pressure
1021.92 hPa
Previous

1 hour ago

EGSC 201220Z 27011KT 240V300 9999 SCT045 19/07 Q1022
Observed
Aug-20 @ 12:20 UTC
Wind
  • 270° at 11 KTS
Visibility
10,000+ meters
Flight Rules
VFR
Cloud Levels
  • Scattered at 4,500' AGL
Temperature
19°C / 66°F
Dewpoint
C / 45°F
Humidity
46%
Altimeter
30.18" Hg
Pressure
1021.92 hPa
Previous

2 hours ago

EGSC 201150Z 29009KT 9999 SCT036 18/09 Q1022
Observed
Aug-20 @ 11:50 UTC
Wind
  • 290° at 9 KTS
Visibility
10,000+ meters
Flight Rules
VFR
Cloud Levels
  • Scattered at 3,600' AGL
Temperature
18°C / 64°F
Dewpoint
C / 48°F
Humidity
56%
Altimeter
30.18" Hg
Pressure
1021.92 hPa